createdAt,value
2022-10-03T00:02:08.940Z,2.30
2022-10-03T00:04:49.894Z,2.45
2022-10-03T00:07:32.201Z,2.15
2022-10-03T00:10:07.874Z,2.85
2022-10-03T00:12:47.607Z,3.10
2022-10-03T00:15:21.881Z,2.20
2022-10-03T00:17:59.880Z,2.58
2022-10-03T00:20:42.615Z,1.92
2022-10-03T00:23:15.093Z,2.78
2022-10-03T00:25:46.591Z,2.30
2022-10-03T00:28:22.652Z,2.67
2022-10-03T00:31:05.713Z,2.13
2022-10-03T00:33:44.727Z,2.45
2022-10-03T00:36:15.626Z,2.75
2022-10-03T00:39:28.250Z,3.00
2022-10-03T00:42:26.993Z,2.50
2022-10-03T00:45:22.523Z,2.33
2022-10-03T00:48:22.827Z,2.60
2022-10-03T00:51:00.977Z,2.97
2022-10-03T00:53:58.985Z,2.85
2022-10-03T00:57:06.446Z,2.50
2022-10-03T00:59:47.984Z,2.63
2022-10-03T01:02:29.995Z,2.42
2022-10-03T01:05:05.019Z,3.17
2022-10-03T01:07:57.695Z,2.30
2022-10-03T01:10:30.073Z,2.77
2022-10-03T01:13:06.712Z,3.00
2022-10-03T01:15:42.049Z,3.03
2022-10-03T01:18:20.100Z,2.53
2022-10-03T01:20:55.494Z,3.03
2022-10-03T01:23:40.108Z,2.92
2022-10-03T01:26:16.391Z,2.88
2022-10-03T01:29:06.169Z,2.93
2022-10-03T01:31:44.954Z,2.97
2022-10-03T01:34:19.603Z,3.10
2022-10-03T01:36:53.936Z,3.05
2022-10-03T01:39:28.289Z,3.40
2022-10-03T01:42:00.865Z,2.50
2022-10-03T01:44:43.013Z,2.53
2022-10-03T01:47:19.337Z,2.83
2022-10-03T01:49:50.260Z,2.90
2022-10-03T01:52:22.967Z,3.95
2022-10-03T01:54:55.331Z,3.00
2022-10-03T01:57:30.303Z,2.65
2022-10-03T02:00:06.884Z,2.87
2022-10-03T02:02:38.161Z,2.70
2022-10-03T02:05:12.778Z,2.85
2022-10-03T02:07:48.632Z,3.28
2022-10-03T02:10:24.567Z,3.10
2022-10-03T02:12:59.914Z,3.47
2022-10-03T02:15:34.063Z,3.08
2022-10-03T02:18:12.850Z,2.88
2022-10-03T02:20:46.120Z,3.78
2022-10-03T02:23:25.369Z,3.08
2022-10-03T02:26:00.968Z,3.50
2022-10-03T02:28:49.558Z,2.75
2022-10-03T02:31:39.722Z,3.60
2022-10-03T02:34:30.999Z,3.08
2022-10-03T02:37:18.097Z,3.15
2022-10-03T02:40:19.709Z,2.72
2022-10-03T02:43:06.571Z,3.30
2022-10-03T02:46:15.939Z,3.20
2022-10-03T02:49:17.565Z,3.20
2022-10-03T02:52:00.464Z,3.17
2022-10-03T02:54:48.896Z,2.92
2022-10-03T02:57:42.491Z,3.20
2022-10-03T03:00:13.909Z,2.90
2022-10-03T03:03:01.547Z,3.00
2022-10-03T03:06:06.219Z,3.25
2022-10-03T03:08:50.306Z,3.50
2022-10-03T03:11:39.406Z,3.22
2022-10-03T03:14:42.284Z,3.30
2022-10-03T03:17:19.268Z,3.50
2022-10-03T03:20:04.462Z,3.17
2022-10-03T03:22:43.469Z,3.05
2022-10-03T03:25:27.654Z,4.10
2022-10-03T03:28:07.509Z,3.38
2022-10-03T03:30:42.632Z,2.95
2022-10-03T03:33:16.694Z,3.30
2022-10-03T03:35:57.590Z,3.70
2022-10-03T03:38:32.108Z,3.53
2022-10-03T03:41:10.399Z,3.35
2022-10-03T03:43:55.724Z,3.95
2022-10-03T03:46:34.394Z,3.63
2022-10-03T03:49:16.632Z,3.70
2022-10-03T03:51:50.537Z,3.42
2022-10-03T03:54:46.465Z,3.40
2022-10-03T03:57:52.833Z,3.30
2022-10-03T04:00:31.738Z,3.63
2022-10-03T04:03:09.084Z,3.33
2022-10-03T04:05:52.653Z,3.15
2022-10-03T04:08:35.544Z,3.30
2022-10-03T04:11:16.893Z,3.13
2022-10-03T04:14:00.949Z,2.60
2022-10-03T04:17:09.460Z,3.13
2022-10-03T04:19:49.781Z,2.53
2022-10-03T04:22:30.366Z,2.67
2022-10-03T04:25:20.740Z,2.90
2022-10-03T04:28:22.423Z,2.88
2022-10-03T04:30:59.822Z,2.47
2022-10-03T04:33:36.724Z,2.78
2022-10-03T04:36:23.786Z,3.03
2022-10-03T04:39:01.008Z,2.70
2022-10-03T04:41:40.943Z,2.83
2022-10-03T04:44:23.670Z,2.80
2022-10-03T04:46:56.141Z,3.50
2022-10-03T04:49:32.249Z,3.08
2022-10-03T04:52:03.877Z,2.80
2022-10-03T04:54:43.737Z,3.33
2022-10-03T04:57:22.260Z,3.05
2022-10-03T04:59:52.644Z,3.10
2022-10-03T05:02:27.521Z,3.67
2022-10-03T05:05:16.938Z,2.92
2022-10-03T05:07:51.040Z,3.40
2022-10-03T05:10:28.360Z,3.10
2022-10-03T05:12:59.988Z,3.22
2022-10-03T05:15:30.368Z,2.90
2022-10-03T05:18:03.241Z,3.15
2022-10-03T05:20:42.807Z,3.53
2022-10-03T05:23:20.752Z,3.67
2022-10-03T05:26:23.254Z,3.50
2022-10-03T05:28:51.628Z,3.40
2022-10-03T05:31:33.382Z,3.17
2022-10-03T05:34:05.432Z,3.30
2022-10-03T05:36:51.636Z,3.00
2022-10-03T05:39:26.853Z,3.28
2022-10-03T05:42:20.931Z,3.20
2022-10-03T05:44:46.808Z,3.85
2022-10-03T05:47:40.285Z,3.85
2022-10-03T05:50:36.738Z,3.90
2022-10-03T05:53:24.880Z,3.85
2022-10-03T05:56:02.858Z,3.72
2022-10-03T05:58:40.348Z,3.53
2022-10-03T06:01:26.774Z,3.70
2022-10-03T06:04:06.081Z,4.40
2022-10-03T06:06:41.159Z,4.00
2022-10-03T06:09:36.759Z,4.22
2022-10-03T06:12:10.029Z,4.88
2022-10-03T06:14:52.077Z,3.63
2022-10-03T06:17:33.640Z,3.97
2022-10-03T06:20:15.034Z,4.00
2022-10-03T06:23:14.696Z,4.03
2022-10-03T06:26:16.629Z,3.67
2022-10-03T06:29:05.444Z,3.97
2022-10-03T06:32:09.406Z,4.22
2022-10-03T06:35:01.410Z,4.17
2022-10-03T06:38:11.243Z,4.35
2022-10-03T06:41:02.480Z,4.55
2022-10-03T06:44:11.638Z,4.90
2022-10-03T06:47:10.546Z,4.70
2022-10-03T06:50:02.219Z,4.63
2022-10-03T06:52:54.404Z,5.28
2022-10-03T06:55:46.919Z,4.70
2022-10-03T06:58:48.314Z,4.63
2022-10-03T07:01:43.709Z,5.15
2022-10-03T07:04:28.812Z,5.50
2022-10-03T07:07:13.640Z,5.85
2022-10-03T07:10:30.350Z,5.05
2022-10-03T07:13:10.133Z,5.05
2022-10-03T07:16:33.268Z,5.30
2022-10-03T07:19:28.321Z,5.40
2022-10-03T07:22:44.138Z,5.63
2022-10-03T07:25:32.457Z,5.63
2022-10-03T07:28:14.507Z,5.63
2022-10-03T07:30:54.571Z,6.00
2022-10-03T07:33:42.719Z,6.20
2022-10-03T07:36:57.727Z,6.35
2022-10-03T07:39:42.071Z,5.53
2022-10-03T07:42:26.041Z,5.78
2022-10-03T07:45:30.162Z,6.35
2022-10-03T07:48:19.319Z,5.47
2022-10-03T07:51:09.714Z,5.00
2022-10-03T07:54:04.809Z,5.60
2022-10-03T07:56:57.459Z,5.65
2022-10-03T07:59:52.432Z,4.88
2022-10-03T08:02:37.170Z,4.68
2022-10-03T08:05:18.885Z,4.55
2022-10-03T08:08:09.559Z,3.92
2022-10-03T08:11:15.492Z,4.30
2022-10-03T08:14:05.518Z,3.95
2022-10-03T08:16:53.335Z,4.17
2022-10-03T08:19:33.745Z,3.53
2022-10-03T08:22:08.296Z,4.47
2022-10-03T08:25:01.911Z,3.70
2022-10-03T08:27:39.432Z,3.13
2022-10-03T08:30:20.301Z,2.92
2022-10-03T08:33:07.219Z,2.75
2022-10-03T08:36:28.840Z,2.70
2022-10-03T08:39:11.430Z,3.43
2022-10-03T08:42:13.943Z,3.20
2022-10-03T08:45:44.508Z,2.50
2022-10-03T08:48:47.182Z,2.50
2022-10-03T08:51:51.852Z,2.47
2022-10-03T08:54:41.293Z,2.30
2022-10-03T08:57:20.545Z,2.67
2022-10-03T09:00:14.737Z,2.17
2022-10-03T09:03:43.225Z,2.17
2022-10-03T09:07:16.091Z,2.15
2022-10-03T09:10:08.595Z,2.40
2022-10-03T09:13:15.260Z,2.35
2022-10-03T09:16:25.368Z,2.63
2022-10-03T09:19:03.637Z,2.30
2022-10-03T09:22:04.776Z,2.05
2022-10-03T09:24:51.385Z,2.13
2022-10-03T09:27:28.230Z,2.40
2022-10-03T09:30:18.525Z,1.95
2022-10-03T09:33:20.785Z,2.30
2022-10-03T09:36:09.466Z,2.30
2022-10-03T09:38:56.503Z,1.60
2022-10-03T09:41:43.639Z,1.70
2022-10-03T09:44:22.057Z,1.63
2022-10-03T09:47:26.764Z,2.05
2022-10-03T09:50:19.318Z,1.70
2022-10-03T09:53:07.063Z,1.80
2022-10-03T09:55:46.050Z,2.00
2022-10-03T09:58:30.355Z,1.27
2022-10-03T10:01:23.340Z,1.42
2022-10-03T10:04:57.546Z,1.67
2022-10-03T10:07:48.607Z,1.90
2022-10-03T10:10:54.099Z,1.42
2022-10-03T10:14:05.888Z,1.50
2022-10-03T10:16:47.704Z,1.83
2022-10-03T10:19:32.743Z,1.33
2022-10-03T10:22:21.684Z,1.35
2022-10-03T10:25:17.987Z,1.40
2022-10-03T10:28:38.754Z,1.40
2022-10-03T10:31:34.711Z,1.20
2022-10-03T10:34:38.750Z,1.13
2022-10-03T10:37:33.190Z,1.15
2022-10-03T10:40:16.623Z,1.52
2022-10-03T10:43:06.618Z,1.40
2022-10-03T10:45:48.315Z,1.88
2022-10-03T10:48:53.460Z,1.27
2022-10-03T10:52:07.925Z,1.30
2022-10-03T10:55:03.655Z,1.30
2022-10-03T10:58:06.457Z,1.30
2022-10-03T11:00:53.165Z,1.00
2022-10-03T11:04:11.754Z,1.40
2022-10-03T11:07:18.891Z,1.07
2022-10-03T11:10:38.171Z,0.98
2022-10-03T11:13:47.379Z,1.13
2022-10-03T11:17:02.937Z,1.02
2022-10-03T11:20:18.602Z,0.95
2022-10-03T11:23:07.090Z,0.75
2022-10-03T11:26:00.782Z,0.90
2022-10-03T11:29:04.588Z,1.00
2022-10-03T11:32:00.701Z,0.90
2022-10-03T11:34:49.275Z,0.95
2022-10-03T11:37:28.412Z,1.23
2022-10-03T11:40:05.445Z,1.05
2022-10-03T11:42:54.571Z,1.02
2022-10-03T11:45:28.229Z,0.93
2022-10-03T11:48:09.874Z,0.93
2022-10-03T11:50:45.112Z,1.20
2022-10-03T11:53:41.136Z,0.90
2022-10-03T11:56:39.967Z,1.00
2022-10-03T11:59:34.393Z,1.10
2022-10-03T12:02:10.775Z,0.82
2022-10-03T12:04:48.218Z,0.80
2022-10-03T12:07:43.279Z,0.93
2022-10-03T12:10:17.918Z,0.93
2022-10-03T12:12:47.984Z,0.80
2022-10-03T12:15:26.939Z,1.00
2022-10-03T12:18:02.992Z,1.45
2022-10-03T12:20:36.946Z,0.80
2022-10-03T12:23:09.912Z,0.80
2022-10-03T12:25:38.925Z,0.80
2022-10-03T12:28:15.433Z,0.80
2022-10-03T12:30:50.153Z,0.60
2022-10-03T12:33:42.261Z,0.75
2022-10-03T12:36:15.558Z,0.77
2022-10-03T12:38:52.154Z,0.90
2022-10-03T12:41:27.212Z,0.82
2022-10-03T12:44:12.447Z,0.63
2022-10-03T12:46:46.654Z,0.90
2022-10-03T12:49:20.735Z,0.60
2022-10-03T12:51:57.387Z,0.98
2022-10-03T12:54:49.641Z,1.00
2022-10-03T12:57:43.477Z,0.95
2022-10-03T13:00:18.234Z,0.80
2022-10-03T13:02:51.115Z,0.80
2022-10-03T13:05:41.280Z,0.70
2022-10-03T13:08:22.924Z,1.13
2022-10-03T13:10:53.893Z,0.77
2022-10-03T13:13:28.875Z,0.93
2022-10-03T13:16:13.580Z,1.23
2022-10-03T13:18:48.540Z,0.80
2022-10-03T13:24:22.310Z,0.57
2022-10-03T13:26:55.197Z,0.80
2022-10-03T13:29:27.112Z,1.02
2022-10-03T13:32:12.203Z,1.10
2022-10-03T13:35:29.444Z,1.20
2022-10-03T13:38:09.934Z,0.80
2022-10-03T13:40:43.527Z,0.80
2022-10-03T13:43:14.815Z,0.60
2022-10-03T13:45:45.717Z,0.70
2022-10-03T13:48:15.608Z,1.15
2022-10-03T13:50:49.331Z,0.80
2022-10-03T13:53:24.766Z,0.77
2022-10-03T13:55:58.461Z,1.48
2022-10-03T13:58:44.138Z,0.82
2022-10-03T14:01:24.257Z,1.20
2022-10-03T14:04:06.850Z,1.05
2022-10-03T14:06:38.386Z,0.80
2022-10-03T14:09:32.766Z,0.90
2022-10-03T14:12:10.098Z,0.80
2022-10-03T14:15:01.712Z,0.93
2022-10-03T14:17:37.493Z,1.05
2022-10-03T14:20:15.858Z,0.85
2022-10-03T14:22:56.820Z,0.90
2022-10-03T14:25:27.117Z,0.65
2022-10-03T14:27:59.747Z,0.80
2022-10-03T14:30:32.187Z,0.70
2022-10-03T14:33:17.277Z,0.80
2022-10-03T14:35:53.418Z,0.87
2022-10-03T14:38:55.492Z,0.85
2022-10-03T14:41:29.084Z,0.70
2022-10-03T14:44:01.394Z,0.82
2022-10-03T14:46:34.172Z,0.80
2022-10-03T14:49:05.555Z,0.80
2022-10-03T14:51:35.439Z,0.60
2022-10-03T14:54:07.254Z,0.75
2022-10-03T14:56:43.026Z,0.80
2022-10-03T14:59:20.348Z,0.80
2022-10-03T15:01:49.200Z,0.93
2022-10-03T15:04:26.592Z,1.10
2022-10-03T15:06:57.183Z,0.98
2022-10-03T15:09:43.978Z,0.97
2022-10-03T15:12:15.784Z,0.60
2022-10-03T15:14:48.372Z,1.02
2022-10-03T15:17:19.650Z,1.00
2022-10-03T15:19:49.643Z,1.10
2022-10-03T15:22:27.639Z,1.10
2022-10-03T15:24:57.996Z,0.85
2022-10-03T15:27:27.328Z,0.80
2022-10-03T15:30:02.049Z,1.02
2022-10-03T15:32:33.391Z,1.00
2022-10-03T15:35:03.012Z,0.70
2022-10-03T15:37:35.752Z,1.00
2022-10-03T15:40:08.024Z,1.00
2022-10-03T15:42:47.240Z,1.02
2022-10-03T15:46:19.613Z,0.98
2022-10-03T15:48:54.044Z,0.93
2022-10-03T15:51:26.480Z,0.77
2022-10-03T15:53:58.650Z,1.10
2022-10-03T15:56:29.948Z,1.05
2022-10-03T15:59:01.160Z,0.95
2022-10-03T16:01:30.962Z,1.10
2022-10-03T16:04:02.434Z,0.90
2022-10-03T16:06:36.124Z,1.23
2022-10-03T16:09:07.927Z,0.80
2022-10-03T16:11:42.942Z,0.98
2022-10-03T16:14:18.510Z,0.68
2022-10-03T16:16:53.406Z,0.57
2022-10-03T16:19:33.169Z,1.10
2022-10-03T16:22:22.133Z,0.90
2022-10-03T16:25:08.213Z,0.70
2022-10-03T16:27:38.247Z,0.85
2022-10-03T16:30:19.036Z,0.90
2022-10-03T16:33:48.463Z,0.80
2022-10-03T16:36:26.742Z,0.70
2022-10-03T16:38:59.346Z,0.97
2022-10-03T16:41:31.907Z,0.60
2022-10-03T16:44:02.608Z,0.80
2022-10-03T16:46:33.740Z,1.02
2022-10-03T16:49:21.054Z,1.17
2022-10-03T16:51:57.104Z,0.95
2022-10-03T16:54:25.511Z,0.80
2022-10-03T16:56:59.211Z,0.70
2022-10-03T16:59:29.656Z,0.93
2022-10-03T17:02:04.546Z,0.87
2022-10-03T17:04:34.486Z,1.30
2022-10-03T17:07:05.422Z,1.33
2022-10-03T17:09:37.588Z,1.40
2022-10-03T17:12:08.136Z,1.00
2022-10-03T17:14:39.200Z,1.20
2022-10-03T17:17:13.476Z,0.95
2022-10-03T17:19:43.058Z,1.38
2022-10-03T17:22:17.247Z,0.98
2022-10-03T17:24:49.337Z,0.85
2022-10-03T17:27:28.759Z,1.30
2022-10-03T17:30:00.332Z,1.10
2022-10-03T17:32:31.219Z,1.30
2022-10-03T17:35:07.414Z,1.40
2022-10-03T17:37:53.311Z,1.70
2022-10-03T17:40:27.139Z,1.35
2022-10-03T17:43:04.133Z,1.73
2022-10-03T17:45:34.629Z,1.90
2022-10-03T17:48:15.880Z,1.80
2022-10-03T17:50:54.146Z,1.65
2022-10-03T17:53:27.488Z,1.77
2022-10-03T17:55:57.152Z,1.90
2022-10-03T17:58:27.995Z,1.83
2022-10-03T18:01:05.226Z,1.85
2022-10-03T18:03:36.219Z,1.88
2022-10-03T18:06:45.028Z,1.90
2022-10-03T18:09:26.063Z,1.80
2022-10-03T18:11:55.825Z,1.67
2022-10-03T18:14:32.492Z,2.10
2022-10-03T18:17:06.856Z,2.30
2022-10-03T18:19:46.592Z,2.17
2022-10-03T18:22:20.307Z,2.28
2022-10-03T18:25:01.611Z,2.55
2022-10-03T18:28:12.570Z,2.70
2022-10-03T18:30:46.530Z,2.50
2022-10-03T18:33:16.349Z,3.05
2022-10-03T18:35:46.971Z,3.17
2022-10-03T18:38:17.948Z,2.58
2022-10-03T18:40:51.127Z,2.78
2022-10-03T18:43:27.057Z,3.20
2022-10-03T18:45:58.342Z,3.28
2022-10-03T18:48:32.499Z,3.13
2022-10-03T18:51:11.474Z,3.00
2022-10-03T18:53:44.358Z,3.10
2022-10-03T18:56:14.570Z,3.00
2022-10-03T18:58:49.103Z,3.00
2022-10-03T19:01:20.033Z,3.05
2022-10-03T19:03:54.334Z,3.00
2022-10-03T19:06:25.204Z,2.87
2022-10-03T19:08:56.677Z,3.00
2022-10-03T19:11:28.830Z,2.95
2022-10-03T19:14:01.908Z,2.88
2022-10-03T19:16:47.274Z,3.20
2022-10-03T19:19:25.108Z,2.90
2022-10-03T19:21:53.286Z,3.35
2022-10-03T19:24:53.491Z,2.70
2022-10-03T19:27:26.874Z,2.90
2022-10-03T19:29:56.430Z,3.40
2022-10-03T19:32:27.396Z,3.30
2022-10-03T19:34:59.785Z,3.45
2022-10-03T19:37:39.798Z,2.80
2022-10-03T19:40:19.049Z,3.42
2022-10-03T19:42:51.046Z,3.33
2022-10-03T19:45:20.305Z,3.20
2022-10-03T19:47:52.170Z,3.75
2022-10-03T19:50:22.178Z,3.50
2022-10-03T19:52:51.240Z,2.72
2022-10-03T19:55:22.868Z,2.90
2022-10-03T19:57:53.623Z,2.78
2022-10-03T20:00:30.278Z,2.72
2022-10-03T20:03:06.572Z,3.33
2022-10-03T20:05:38.680Z,3.25
2022-10-03T20:08:16.928Z,3.13
2022-10-03T20:10:56.083Z,3.08
2022-10-03T20:13:25.463Z,3.10
2022-10-03T20:15:58.273Z,3.72
2022-10-03T20:18:28.095Z,2.95
2022-10-03T20:20:57.855Z,3.30
2022-10-03T20:23:27.935Z,3.17
2022-10-03T20:26:00.787Z,3.05
2022-10-03T20:28:45.353Z,2.90
2022-10-03T20:31:13.323Z,3.10
2022-10-03T20:34:42.770Z,3.33
2022-10-03T20:37:26.495Z,3.70
2022-10-03T20:39:58.847Z,3.90
2022-10-03T20:42:29.755Z,4.32
2022-10-03T20:45:05.059Z,3.35
2022-10-03T20:47:49.681Z,3.45
2022-10-03T20:50:24.025Z,3.78
2022-10-03T20:52:54.356Z,3.50
2022-10-03T20:55:25.236Z,4.15
2022-10-03T20:57:59.952Z,3.85
2022-10-03T21:00:30.332Z,4.32
2022-10-03T21:03:01.767Z,4.13
2022-10-03T21:05:35.477Z,3.70
2022-10-03T21:08:05.021Z,4.43
2022-10-03T21:10:37.594Z,4.43
2022-10-03T21:13:08.096Z,4.10
2022-10-03T21:15:41.084Z,4.55
2022-10-03T21:18:12.790Z,4.35
2022-10-03T21:20:41.164Z,4.45
2022-10-03T21:23:15.976Z,3.93
2022-10-03T21:25:44.684Z,4.10
2022-10-03T21:28:25.799Z,4.23
2022-10-03T21:31:14.180Z,3.63
2022-10-03T21:33:48.958Z,3.97
2022-10-03T21:36:25.142Z,4.45
2022-10-03T21:38:53.124Z,4.22
2022-10-03T21:41:29.348Z,4.75
2022-10-03T21:43:59.896Z,4.55
2022-10-03T21:46:36.805Z,4.43
2022-10-03T21:49:29.832Z,4.47
2022-10-03T21:52:15.918Z,3.97
2022-10-03T21:54:53.848Z,3.80
2022-10-03T21:57:27.207Z,3.90
2022-10-03T22:00:12.419Z,3.90
2022-10-03T22:02:49.835Z,4.57
2022-10-03T22:05:25.071Z,3.95
2022-10-03T22:07:53.069Z,4.53
2022-10-03T22:10:24.465Z,4.20
2022-10-03T22:12:54.570Z,4.88
2022-10-03T22:15:28.521Z,5.40
2022-10-03T22:18:00.005Z,4.82
2022-10-03T22:20:30.156Z,5.07
2022-10-03T22:23:19.683Z,4.30
2022-10-03T22:25:59.978Z,4.55
2022-10-03T22:28:41.244Z,4.10
2022-10-03T22:31:17.489Z,4.85
2022-10-03T22:33:55.852Z,4.60
2022-10-03T22:36:24.186Z,4.72
2022-10-03T22:38:52.946Z,5.13
2022-10-03T22:41:24.494Z,4.50
2022-10-03T22:43:53.260Z,4.95
2022-10-03T22:46:27.166Z,4.93
2022-10-03T22:48:58.991Z,5.57
2022-10-03T22:51:27.187Z,5.40
2022-10-03T22:53:59.478Z,5.40
2022-10-03T22:56:38.974Z,5.63
2022-10-03T22:59:09.871Z,5.25
2022-10-03T23:01:40.085Z,4.53
2022-10-03T23:04:15.011Z,4.63
2022-10-03T23:07:06.448Z,4.60
2022-10-03T23:09:42.058Z,5.13
2022-10-03T23:12:11.468Z,5.50
2022-10-03T23:14:42.556Z,5.07
2022-10-03T23:17:19.435Z,5.25
2022-10-03T23:19:54.665Z,5.43
2022-10-03T23:22:25.438Z,5.63
2022-10-03T23:24:56.954Z,4.87
2022-10-03T23:28:01.597Z,5.80
2022-10-03T23:30:48.263Z,5.22
2022-10-03T23:33:18.788Z,5.20
2022-10-03T23:35:48.382Z,5.05
2022-10-03T23:39:01.194Z,5.10
2022-10-03T23:41:32.704Z,5.72
2022-10-03T23:44:00.743Z,5.53
2022-10-03T23:47:30.135Z,5.18
2022-10-03T23:49:58.513Z,4.53
2022-10-03T23:52:31.759Z,5.30
2022-10-03T23:55:04.441Z,5.28
2022-10-03T23:57:35.635Z,5.90
